Time;durP1;ratioP1;P1;durP2;ratioP2;P2;SDS_P1;SDS_P2;PMS_P1;PMS_P2;Temp;Humidity;BMP_temperature;BMP_pressure;BME280_temperature;BME280_humidity;BME280_pressure;Samples;Min_cycle;Max_cycle;Signal;HPM_P1;HPM_P2
2023/01/31 00:01:23;;;;;;;21.60;4.00;;;;;;;4.64;100.00;102051.72;4950551;28;20058;-77
2023/01/31 00:03:54;;;;;;;26.55;4.47;;;;;;;4.59;100.00;102055.41;4956378;28;20884;-76
2023/01/31 00:06:26;;;;;;;15.68;4.05;;;;;;;4.57;100.00;102057.69;4954355;28;20057;-78
2023/01/31 00:08:53;;;;;;;26.23;4.70;;;;;;;4.52;100.00;102046.88;4956121;28;20054;-75
2023/01/31 00:11:22;;;;;;;5.03;1.90;;;;;;;4.53;100.00;102056.72;4948532;28;20055;-79
2023/01/31 00:13:51;;;;;;;34.40;6.90;;;;;;;4.61;100.00;102053.16;4954494;28;20833;-76
2023/01/31 00:16:18;;;;;;;8.20;1.38;;;;;;;4.56;100.00;102052.53;4962406;28;20061;-78
2023/01/31 00:18:46;;;;;;;31.17;5.47;;;;;;;4.53;100.00;102050.44;4966716;28;20054;-75
2023/01/31 00:21:18;;;;;;;6.45;3.03;;;;;;;4.56;100.00;102060.75;4970101;28;20917;-76
2023/01/31 00:23:46;;;;;;;30.70;4.30;;;;;;;4.56;100.00;102058.81;4965678;28;20051;-76
2023/01/31 00:26:21;;;;;;;19.58;2.85;;;;;;;4.57;100.00;102056.88;4969122;28;20050;-75
2023/01/31 00:28:50;;;;;;;25.63;4.63;;;;;;;4.61;100.00;102064.13;4954890;28;20886;-77
2023/01/31 00:31:18;;;;;;;15.55;3.45;;;;;;;4.65;100.00;102065.09;4961969;28;20050;-76
2023/01/31 00:33:47;;;;;;;18.60;4.25;;;;;;;4.71;100.00;102069.28;4957284;28;20093;-76
2023/01/31 00:36:24;;;;;;;21.42;4.32;;;;;;;4.70;100.00;102073.13;4956615;28;20069;-76
2023/01/31 00:38:53;;;;;;;25.95;4.20;;;;;;;4.76;100.00;102066.34;4962414;28;20064;-76
2023/01/31 00:41:21;;;;;;;24.02;5.20;;;;;;;4.80;100.00;102059.09;4965223;28;20046;-76
2023/01/31 00:43:49;;;;;;;32.33;4.78;;;;;;;4.84;100.00;102051.03;4953071;28;20070;-77
2023/01/31 00:46:17;;;;;;;5.38;1.48;;;;;;;4.85;100.00;102053.44;4954577;28;20161;-77
2023/01/31 00:48:43;;;;;;;28.98;5.15;;;;;;;4.89;100.00;102040.69;4964413;28;20093;-78
2023/01/31 00:51:10;;;;;;;11.07;2.17;;;;;;;4.80;100.00;102034.41;4961574;28;20057;-77
2023/01/31 00:53:37;;;;;;;34.22;6.10;;;;;;;4.91;100.00;102040.34;4968702;28;20051;-76
2023/01/31 00:56:16;;;;;;;24.77;4.65;;;;;;;4.96;100.00;102043.72;4961274;28;20065;-78
2023/01/31 00:58:43;;;;;;;28.48;5.55;;;;;;;4.94;100.00;102046.00;4957460;28;20054;-78
2023/01/31 01:01:14;;;;;;;7.65;2.03;;;;;;;4.95;100.00;102052.28;4954898;28;20603;-75
2023/01/31 01:03:42;;;;;;;7.55;1.08;;;;;;;4.98;100.00;102049.69;4957284;28;20046;-75
2023/01/31 01:06:10;;;;;;;19.98;3.60;;;;;;;4.98;100.00;102059.84;4957790;28;20066;-76
2023/01/31 01:08:39;;;;;;;4.13;1.75;;;;;;;5.03;100.00;102059.69;4955570;28;20051;-77
2023/01/31 01:11:12;;;;;;;26.20;6.10;;;;;;;5.09;100.00;102067.41;4948362;28;20053;-76
2023/01/31 01:13:40;;;;;;;14.77;3.58;;;;;;;5.10;100.00;102063.53;4956042;28;20061;-76
2023/01/31 01:16:09;;;;;;;8.98;2.85;;;;;;;5.11;100.00;102062.41;4958134;28;20050;-77
2023/01/31 01:18:36;;;;;;;36.63;6.13;;;;;;;5.10;100.00;102047.06;4953656;28;20051;-78
2023/01/31 01:21:16;;;;;;;13.75;2.97;;;;;;;5.12;100.00;102046.72;4947654;28;20055;-74
2023/01/31 01:23:46;;;;;;;12.25;3.25;;;;;;;5.06;100.00;102048.84;4950867;28;20054;-76
2023/01/31 01:26:24;;;;;;;15.85;4.65;;;;;;;5.06;100.00;102053.53;4948574;28;20061;-75
2023/01/31 01:28:51;;;;;;;37.05;6.22;;;;;;;5.06;100.00;102026.91;4947244;28;20817;-76
2023/01/31 01:31:18;;;;;;;23.50;4.80;;;;;;;5.03;100.00;102032.25;4944729;28;20138;-75
2023/01/31 01:33:47;;;;;;;9.50;2.70;;;;;;;4.94;100.00;102028.72;4964717;28;20714;-74
2023/01/31 01:36:20;;;;;;;20.73;4.90;;;;;;;4.98;100.00;102035.16;4952157;28;20059;-77
2023/01/31 01:38:47;;;;;;;23.52;5.82;;;;;;;4.92;100.00;102034.53;4955721;28;20565;-77
2023/01/31 01:41:14;;;;;;;7.35;2.60;;;;;;;4.87;100.00;102039.41;4955289;28;20054;-74
2023/01/31 01:43:45;;;;;;;31.23;5.75;;;;;;;4.99;100.00;102031.28;4950159;28;20058;-76
2023/01/31 01:46:24;;;;;;;24.75;5.20;;;;;;;4.92;100.00;102036.47;4940066;28;20060;-77
2023/01/31 01:48:56;;;;;;;18.40;3.53;;;;;;;4.87;100.00;102033.91;4947720;28;20843;-75
2023/01/31 01:51:24;;;;;;;24.83;5.30;;;;;;;4.91;100.00;102030.19;4946769;28;20088;-76
2023/01/31 01:53:55;;;;;;;26.50;5.22;;;;;;;4.88;100.00;102030.84;4955377;28;20050;-77
2023/01/31 01:56:31;;;;;;;18.52;4.75;;;;;;;4.83;100.00;102025.53;4953823;28;20057;-76
2023/01/31 01:59:07;;;;;;;10.82;3.28;;;;;;;4.85;100.00;102028.75;4945498;28;20059;-76
2023/01/31 02:01:36;;;;;;;10.95;3.08;;;;;;;4.81;100.00;102035.22;4951432;28;20055;-75
2023/01/31 02:04:06;;;;;;;2.63;2.15;;;;;;;4.77;100.00;102028.78;4950936;28;20084;-76
2023/01/31 02:06:33;;;;;;;34.20;5.63;;;;;;;4.83;100.00;102033.75;4952435;28;20532;-76
2023/01/31 02:09:02;;;;;;;24.38;6.28;;;;;;;4.77;100.00;102046.06;4948533;28;20907;-76
2023/01/31 02:11:30;;;;;;;23.25;5.10;;;;;;;4.75;100.00;102040.06;4948482;28;20046;-77
2023/01/31 02:14:06;;;;;;;27.98;6.47;;;;;;;4.78;100.00;102049.59;4940990;28;20401;-77
2023/01/31 02:16:34;;;;;;;5.30;2.08;;;;;;;4.80;100.00;102050.84;4950295;28;20058;-77
2023/01/31 02:19:01;;;;;;;12.55;3.15;;;;;;;4.74;100.00;102054.94;4948112;28;20066;-75
2023/01/31 02:21:27;;;;;;;25.92;4.82;;;;;;;4.86;100.00;102063.28;4949306;28;20055;-77
2023/01/31 02:24:05;;;;;;;20.70;4.55;;;;;;;4.83;100.00;102066.66;4947914;28;20886;-77
2023/01/31 02:26:31;;;;;;;21.15;4.07;;;;;;;4.87;100.00;102066.84;4941765;28;20054;-76
2023/01/31 02:29:18;;;;;;;12.57;3.55;;;;;;;4.89;100.00;102073.59;4947240;28;20062;-75
2023/01/31 02:32:09;;;;;;;27.27;5.50;;;;;;;4.89;100.00;102081.81;4968290;28;20536;-76
2023/01/31 02:34:59;;;;;;;18.17;3.42;;;;;;;4.91;100.00;102084.25;4969949;28;20050;-77
2023/01/31 02:37:35;;;;;;;24.63;5.38;;;;;;;4.89;100.00;102065.38;4955643;28;20057;-76
2023/01/31 02:40:16;;;;;;;14.27;2.03;;;;;;;4.86;100.00;102076.19;4968579;28;20133;-77
2023/01/31 02:43:23;;;;;;;27.77;4.50;;;;;;;4.86;100.00;102070.72;4960284;28;20045;-77
2023/01/31 02:46:06;;;;;;;11.18;2.42;;;;;;;4.86;100.00;102063.28;4946280;28;20051;-76
2023/01/31 02:48:53;;;;;;;29.38;5.25;;;;;;;4.98;100.00;102065.34;4963730;28;20220;-76
2023/01/31 02:51:30;;;;;;;25.67;4.38;;;;;;;4.90;100.00;102061.47;4985647;28;20046;-76
2023/01/31 02:54:14;;;;;;;16.70;4.72;;;;;;;4.90;100.00;102056.00;4969042;28;20043;-76
2023/01/31 02:56:45;;;;;;;9.20;3.13;;;;;;;4.89;100.00;102059.06;4967018;28;20047;-78
2023/01/31 02:59:20;;;;;;;16.45;4.07;;;;;;;4.90;100.00;102061.47;4957751;28;20046;-78
2023/01/31 03:02:01;;;;;;;10.23;3.55;;;;;;;4.91;100.00;102063.13;4967339;28;20047;-78
2023/01/31 03:04:32;;;;;;;14.40;2.33;;;;;;;4.90;100.00;102045.03;4961617;28;20046;-77
2023/01/31 03:07:11;;;;;;;11.55;3.60;;;;;;;4.97;100.00;102056.28;4959357;28;20130;-77
2023/01/31 03:09:46;;;;;;;19.20;4.05;;;;;;;4.99;100.00;102062.28;4968361;28;20043;-77
2023/01/31 03:12:32;;;;;;;;;;;;;;;4.96;100.00;102049.22;4966559;28;20042;-75
2023/01/31 03:15:01;;;;;;;16.23;4.07;;;;;;;4.98;100.00;102046.13;4965570;28;19922;-78
2023/01/31 03:17:49;;;;;;;14.98;3.42;;;;;;;5.02;100.00;102034.19;4968049;28;20481;-76
2023/01/31 03:20:19;;;;;;;23.98;5.13;;;;;;;5.00;100.00;102030.97;4968351;28;20078;-76
2023/01/31 03:22:53;;;;;;;32.38;6.85;;;;;;;5.03;100.00;102033.03;4979953;28;20066;-76
2023/01/31 03:25:23;;;;;;;30.98;6.57;;;;;;;5.01;100.00;102027.09;4964084;28;20047;-77
2023/01/31 03:27:56;;;;;;;12.85;3.30;;;;;;;4.97;100.00;102026.13;4962409;28;20478;-77
2023/01/31 03:30:33;;;;;;;30.60;6.90;;;;;;;5.07;100.00;102020.28;4982174;28;20047;-78
2023/01/31 03:33:12;;;;;;;14.15;3.05;;;;;;;4.98;100.00;102021.44;4964521;28;20047;-76
2023/01/31 03:35:41;;;;;;;13.93;3.85;;;;;;;5.07;100.00;102016.75;4968921;28;20398;-78
2023/01/31 03:38:18;;;;;;;17.00;5.15;;;;;;;4.99;100.00;101999.19;4951766;28;20502;-77
2023/01/31 03:40:57;;;;;;;25.52;4.40;;;;;;;5.06;100.00;101988.50;4962698;28;20042;-78
2023/01/31 03:43:23;;;;;;;16.65;3.65;;;;;;;5.01;100.00;101994.19;4964191;28;20042;-78
2023/01/31 03:46:04;;;;;;;11.20;2.40;;;;;;;5.06;100.00;101996.72;4962463;28;20402;-78
2023/01/31 03:48:45;;;;;;;11.85;3.72;;;;;;;5.00;100.00;101983.53;4967408;28;20046;-76
2023/01/31 03:51:18;;;;;;;23.70;5.55;;;;;;;5.00;100.00;101978.84;4978097;28;20846;-76
2023/01/31 03:53:48;;;;;;;23.17;5.13;;;;;;;4.97;100.00;101982.25;4950342;28;20059;-76
2023/01/31 03:56:20;;;;;;;10.55;3.22;;;;;;;4.96;100.00;101971.59;4973695;28;20161;-77
2023/01/31 03:58:52;;;;;;;20.20;4.18;;;;;;;4.86;100.00;101978.25;4971756;28;20065;-76
2023/01/31 04:01:22;;;;;;;10.60;3.38;;;;;;;4.80;100.00;101957.63;4966871;28;20558;-78
2023/01/31 04:03:57;;;;;;;22.88;5.97;;;;;;;4.86;100.00;101961.00;4969753;28;20491;-78
2023/01/31 04:06:24;;;;;;;7.43;3.13;;;;;;;4.80;100.00;101967.81;4961576;28;20672;-79
2023/01/31 04:08:51;;;;;;;14.63;2.53;;;;;;;4.74;100.00;101967.19;4962555;28;20035;-76
2023/01/31 04:11:20;;;;;;;19.48;5.60;;;;;;;4.76;100.00;101962.16;4968995;28;20691;-76
2023/01/31 04:13:47;;;;;;;16.27;4.47;;;;;;;4.63;100.00;101973.34;4962505;28;20047;-75
2023/01/31 04:16:13;;;;;;;16.17;3.78;;;;;;;4.64;100.00;101977.69;4968124;28;20047;-76
2023/01/31 04:18:40;;;;;;;18.17;5.05;;;;;;;4.69;100.00;101961.06;4953724;28;20055;-76
2023/01/31 04:21:06;;;;;;;12.18;3.17;;;;;;;4.66;100.00;101959.78;4963270;28;20047;-76
2023/01/31 04:23:33;;;;;;;19.40;4.88;;;;;;;4.66;100.00;101968.00;4949674;28;20490;-75
2023/01/31 04:25:59;;;;;;;23.27;5.05;;;;;;;4.69;100.00;101967.34;4950329;28;20047;-76
2023/01/31 04:28:26;;;;;;;17.35;4.32;;;;;;;4.69;100.00;101970.09;4962634;28;20062;-77
2023/01/31 04:30:54;;;;;;;15.75;4.50;;;;;;;4.70;100.00;101974.44;4951695;28;20499;-77
2023/01/31 04:33:22;;;;;;;21.85;5.72;;;;;;;4.66;100.00;101978.97;4971107;28;20078;-76
2023/01/31 04:35:51;;;;;;;8.80;2.85;;;;;;;4.77;100.00;101980.25;4974967;28;20050;-76
2023/01/31 04:38:18;;;;;;;12.85;4.10;;;;;;;4.81;100.00;101980.38;4962417;28;20058;-77
2023/01/31 04:40:44;;;;;;;14.20;4.57;;;;;;;4.76;100.00;101967.66;4974114;28;20043;-77
2023/01/31 04:43:11;;;;;;;19.77;4.15;;;;;;;4.81;100.00;101964.75;4981307;28;20389;-76
2023/01/31 04:45:37;;;;;;;15.70;4.85;;;;;;;4.78;100.00;101965.38;4961048;28;20046;-76
2023/01/31 04:48:04;;;;;;;24.50;6.45;;;;;;;4.78;100.00;101970.88;4967118;28;20054;-76
2023/01/31 04:50:31;;;;;;;22.10;6.43;;;;;;;4.89;100.00;101963.88;4974392;28;20652;-76
2023/01/31 04:52:58;;;;;;;25.67;6.72;;;;;;;4.78;100.00;101964.56;4958691;28;20051;-75
2023/01/31 04:55:26;;;;;;;24.15;7.05;;;;;;;4.89;100.00;101955.66;4985544;28;20104;-78
2023/01/31 04:57:53;;;;;;;22.92;5.78;;;;;;;4.86;100.00;101953.56;4982661;28;20477;-76
2023/01/31 05:00:19;;;;;;;18.17;4.53;;;;;;;4.91;100.00;101947.91;4962459;28;20053;-77
2023/01/31 05:02:46;;;;;;;6.70;2.25;;;;;;;4.88;100.00;101945.84;4967513;28;20057;-77
2023/01/31 05:05:12;;;;;;;32.78;8.48;;;;;;;4.82;100.00;101949.88;4962159;28;20046;-75
2023/01/31 05:07:39;;;;;;;16.33;3.50;;;;;;;4.93;100.00;101948.38;4953312;28;20175;-76
2023/01/31 05:10:06;;;;;;;24.58;7.50;;;;;;;4.86;100.00;101939.84;4964789;28;20579;-77
2023/01/31 05:12:33;;;;;;;20.90;6.55;;;;;;;4.96;100.00;101935.94;4974687;28;20043;-76
2023/01/31 05:15:00;;;;;;;16.10;4.57;;;;;;;4.95;100.00;101928.84;4971626;28;20051;-76
2023/01/31 05:17:28;;;;;;;22.73;6.60;;;;;;;4.92;100.00;101927.56;4968569;28;20039;-76
2023/01/31 05:19:56;;;;;;;16.85;5.45;;;;;;;4.94;100.00;101933.56;4971047;28;20157;-77
2023/01/31 05:22:22;;;;;;;22.80;6.25;;;;;;;4.92;100.00;101924.84;4963035;28;20044;-76
2023/01/31 05:24:49;;;;;;;16.95;4.18;;;;;;;4.98;100.00;101928.19;4971369;28;20051;-77
2023/01/31 05:27:17;;;;;;;20.65;3.90;;;;;;;4.96;100.00;101925.78;4970300;28;20059;-76
2023/01/31 05:29:44;;;;;;;6.18;2.70;;;;;;;4.95;100.00;101929.66;4970206;28;20046;-76
2023/01/31 05:32:12;;;;;;;15.85;4.95;;;;;;;4.92;100.00;101919.34;4969824;28;20445;-76
2023/01/31 05:34:38;;;;;;;18.33;5.50;;;;;;;4.99;100.00;101929.78;4961695;28;20824;-76
2023/01/31 05:37:05;;;;;;;8.35;3.55;;;;;;;4.99;100.00;101924.31;4967555;28;20166;-76
2023/01/31 05:39:32;;;;;;;31.02;8.05;;;;;;;5.06;100.00;101917.16;4965162;28;20102;-76
2023/01/31 05:41:59;;;;;;;25.85;6.07;;;;;;;4.97;100.00;101908.19;4950868;28;20055;-76
2023/01/31 05:44:25;;;;;;;24.02;3.88;;;;;;;4.99;100.00;101911.41;4966436;28;20110;-76
2023/01/31 05:46:52;;;;;;;16.35;6.15;;;;;;;4.93;100.00;101911.94;4964143;28;20051;-76
2023/01/31 05:49:19;;;;;;;9.90;4.07;;;;;;;4.98;100.00;101919.97;4969900;28;20416;-77
2023/01/31 05:51:45;;;;;;;18.67;4.28;;;;;;;4.98;100.00;101912.53;4955722;28;20066;-77
2023/01/31 05:54:12;;;;;;;20.33;4.78;;;;;;;5.04;100.00;101902.97;4957200;28;20394;-77
2023/01/31 05:56:38;;;;;;;23.52;5.72;;;;;;;5.02;100.00;101893.47;4972071;28;20042;-77
2023/01/31 05:59:05;;;;;;;18.60;5.57;;;;;;;5.02;100.00;101880.56;4972377;28;20049;-77
2023/01/31 06:01:31;;;;;;;29.40;7.70;;;;;;;4.98;100.00;101865.91;4970034;28;20057;-76
2023/01/31 06:03:58;;;;;;;16.92;6.43;;;;;;;5.03;100.00;101865.72;4970851;28;20054;-76
2023/01/31 06:06:26;;;;;;;15.93;4.07;;;;;;;5.08;100.00;101854.56;4958703;28;20043;-77
2023/01/31 06:08:52;;;;;;;10.70;4.93;;;;;;;5.13;100.00;101857.09;4951594;28;20055;-75
2023/01/31 06:11:19;;;;;;;21.95;4.63;;;;;;;5.10;100.00;101855.00;4950482;28;20500;-78
2023/01/31 06:13:45;;;;;;;25.65;8.32;;;;;;;5.20;100.00;101868.34;4952367;28;20132;-77
2023/01/31 06:16:12;;;;;;;9.98;2.70;;;;;;;5.19;100.00;101863.19;4961516;28;20051;-77
2023/01/31 06:18:38;;;;;;;24.10;8.27;;;;;;;5.12;100.00;101860.97;4975048;28;20052;-77
2023/01/31 06:21:05;;;;;;;12.60;4.20;;;;;;;5.23;100.00;101867.69;4987418;28;20050;-77
2023/01/31 06:23:33;;;;;;;29.73;9.38;;;;;;;5.23;100.00;101875.09;4969255;28;20057;-77
2023/01/31 06:25:59;;;;;;;23.27;6.00;;;;;;;5.24;100.00;101872.03;4970608;28;20405;-76
2023/01/31 06:28:26;;;;;;;14.50;4.93;;;;;;;5.32;100.00;101881.34;4969563;28;20089;-78
2023/01/31 06:30:53;;;;;;;21.48;4.32;;;;;;;5.27;100.00;101879.59;4965386;28;20042;-75
2023/01/31 06:33:19;;;;;;;25.88;7.45;;;;;;;5.20;100.00;101873.81;4969100;28;20039;-76
2023/01/31 06:35:49;;;;;;;23.02;7.18;;;;;;;5.30;100.00;101869.91;4961585;28;20043;-77
2023/01/31 06:38:16;;;;;;;25.25;7.50;;;;;;;5.23;100.00;101875.91;4960615;28;20051;-77
2023/01/31 06:40:42;;;;;;;13.75;4.78;;;;;;;5.21;100.00;101875.47;4966708;28;20510;-77
2023/01/31 06:43:09;;;;;;;31.80;7.55;;;;;;;5.19;100.00;101885.13;4968663;28;20074;-77
2023/01/31 06:45:36;;;;;;;14.20;5.70;;;;;;;5.22;100.00;101896.25;4951370;28;20066;-77
2023/01/31 06:48:03;;;;;;;33.97;8.98;;;;;;;5.10;100.00;101879.69;4965964;28;20074;-76
2023/01/31 06:50:29;;;;;;;19.88;6.82;;;;;;;5.18;100.00;101880.78;4967254;28;20210;-76
2023/01/31 06:52:58;;;;;;;33.42;8.45;;;;;;;5.20;100.00;101878.53;4967281;28;20060;-77
2023/01/31 06:55:24;;;;;;;25.10;6.75;;;;;;;5.22;100.00;101882.53;4953450;28;20568;-77
2023/01/31 06:57:51;;;;;;;22.88;7.45;;;;;;;5.13;100.00;101879.03;4978602;28;20050;-77
2023/01/31 07:00:18;;;;;;;20.80;7.85;;;;;;;5.18;100.00;101908.22;4970978;28;20054;-77
2023/01/31 07:02:45;;;;;;;18.85;6.18;;;;;;;5.22;100.00;101899.00;4972445;28;20132;-77
2023/01/31 07:05:12;;;;;;;25.42;6.90;;;;;;;5.15;100.00;101909.69;4952004;28;20480;-77
2023/01/31 07:07:39;;;;;;;30.73;9.88;;;;;;;5.17;100.00;101904.66;4961847;28;20520;-77
2023/01/31 07:10:07;;;;;;;13.13;4.43;;;;;;;5.21;100.00;101899.34;4974777;28;20051;-78
2023/01/31 07:12:33;;;;;;;28.80;7.97;;;;;;;5.23;100.00;101895.13;4960416;28;20053;-78
2023/01/31 07:15:00;;;;;;;20.20;6.65;;;;;;;5.31;100.00;101912.66;4959987;28;20061;-75
2023/01/31 07:17:27;;;;;;;32.42;7.82;;;;;;;5.33;100.00;101902.16;4961764;28;20066;-76
2023/01/31 07:19:53;;;;;;;22.67;7.35;;;;;;;5.38;100.00;101900.03;4968971;28;20070;-76
2023/01/31 07:22:20;;;;;;;17.95;5.95;;;;;;;5.44;100.00;101890.44;4972575;28;20034;-76
2023/01/31 07:24:49;;;;;;;23.42;7.65;;;;;;;5.47;100.00;101881.53;4959754;28;20050;-76
2023/01/31 07:27:17;;;;;;;35.10;9.70;;;;;;;5.50;100.00;101880.06;4967829;28;20057;-78
2023/01/31 07:29:43;;;;;;;19.55;6.63;;;;;;;5.59;100.00;101877.25;4961175;28;20496;-76
2023/01/31 07:32:10;;;;;;;19.38;7.32;;;;;;;5.61;100.00;101885.97;4966652;28;20043;-77
2023/01/31 07:34:36;;;;;;;28.77;9.02;;;;;;;5.61;100.00;101888.69;4964214;28;20047;-75
2023/01/31 07:37:03;;;;;;;19.92;5.03;;;;;;;5.76;100.00;101879.84;4960497;28;20054;-78
2023/01/31 07:39:29;;;;;;;17.02;6.80;;;;;;;5.73;100.00;101883.28;4964347;28;20039;-76
2023/01/31 07:41:56;;;;;;;28.13;7.72;;;;;;;5.82;100.00;101889.50;4949891;28;20043;-78
2023/01/31 07:44:23;;;;;;;19.15;5.72;;;;;;;5.89;100.00;101870.53;4968877;28;20038;-76
2023/01/31 07:46:50;;;;;;;30.65;10.52;;;;;;;5.83;100.00;101869.13;4959579;28;20051;-77
2023/01/31 07:49:16;;;;;;;27.08;8.13;;;;;;;5.89;100.00;101867.78;4960668;28;20486;-77
2023/01/31 07:51:42;;;;;;;25.63;7.45;;;;;;;5.87;100.00;101865.38;4974698;28;20046;-77
2023/01/31 07:54:10;;;;;;;21.17;7.65;;;;;;;5.93;100.00;101853.06;4961598;28;20082;-75
2023/01/31 07:56:37;;;;;;;30.48;11.05;;;;;;;5.95;100.00;101855.47;4970921;28;20042;-78
2023/01/31 07:59:03;;;;;;;23.27;7.53;;;;;;;6.08;100.00;101855.19;4962191;28;20047;-77
2023/01/31 08:04:16;;;;;;;21.80;5.93;;;;;;;6.08;100.00;101848.88;4966401;28;20061;-77
2023/01/31 08:06:52;;;;;;;26.08;8.57;;;;;;;6.05;100.00;101847.59;4975679;28;20042;-76
2023/01/31 08:09:18;;;;;;;23.90;7.45;;;;;;;6.20;100.00;101843.38;4955318;28;20108;-76
2023/01/31 08:11:45;;;;;;;25.77;9.25;;;;;;;6.09;100.00;101853.22;4973167;28;20046;-76
2023/01/31 08:14:13;;;;;;;22.60;5.38;;;;;;;6.18;100.00;101840.19;4973945;28;20054;-75
2023/01/31 08:16:39;;;;;;;23.88;6.40;;;;;;;6.16;100.00;101835.03;4960384;28;20058;-76
2023/01/31 08:19:06;;;;;;;24.90;5.75;;;;;;;6.17;100.00;101838.59;4967377;28;20755;-76
2023/01/31 08:21:32;;;;;;;14.63;4.68;;;;;;;6.17;100.00;101853.13;4978523;28;20153;-77
2023/01/31 08:23:59;;;;;;;27.27;9.05;;;;;;;6.13;100.00;101856.88;4974180;28;20055;-76
2023/01/31 08:26:25;;;;;;;27.38;6.60;;;;;;;6.20;100.00;101851.63;4964678;28;20062;-76
2023/01/31 08:28:55;;;;;;;21.70;7.15;;;;;;;6.14;100.00;101842.00;4973790;28;20049;-77
2023/01/31 08:31:24;;;;;;;31.67;7.22;;;;;;;6.13;100.00;101840.38;4965033;28;20053;-77
2023/01/31 08:33:52;;;;;;;27.70;9.90;;;;;;;5.97;100.00;101839.47;4967064;28;20038;-78
2023/01/31 08:36:22;;;;;;;15.27;4.05;;;;;;;6.06;100.00;101834.66;4966516;28;20082;-76
2023/01/31 08:38:49;;;;;;;22.67;7.15;;;;;;;5.95;100.00;101836.22;4965188;28;20043;-77
2023/01/31 08:41:17;;;;;;;26.25;7.22;;;;;;;5.95;100.00;101819.75;4962226;28;20047;-77
2023/01/31 08:43:45;;;;;;;32.15;8.20;;;;;;;5.67;100.00;101837.94;4975136;28;20039;-76
2023/01/31 08:46:23;;;;;;;21.98;6.25;;;;;;;5.72;100.00;101815.75;4970349;28;20490;-77
2023/01/31 08:48:50;;;;;;;25.23;6.53;;;;;;;5.64;100.00;101797.44;4971962;28;20050;-76
2023/01/31 08:51:17;;;;;;;22.98;6.95;;;;;;;5.62;100.00;101806.00;4972700;28;20050;-77
2023/01/31 08:53:44;;;;;;;12.35;3.28;;;;;;;5.65;100.00;101790.78;4967183;28;20035;-77
2023/01/31 08:56:12;;;;;;;13.98;4.35;;;;;;;5.64;100.00;101786.44;4971073;28;20086;-77
2023/01/31 08:58:41;;;;;;;16.70;4.13;;;;;;;5.67;100.00;101800.28;4970747;28;20528;-77
2023/01/31 09:01:10;;;;;;;18.75;4.72;;;;;;;5.64;100.00;101798.25;4970810;28;20556;-77
2023/01/31 09:03:37;;;;;;;20.35;7.43;;;;;;;5.65;100.00;101785.28;4971817;28;20047;-75
2023/01/31 09:06:06;;;;;;;21.50;5.25;;;;;;;5.66;100.00;101784.97;4985657;28;20046;-76
2023/01/31 09:08:33;;;;;;;18.70;4.57;;;;;;;5.66;100.00;101781.41;4970049;28;20042;-76
2023/01/31 09:10:59;;;;;;;20.45;5.00;;;;;;;5.69;100.00;101788.97;4972539;28;20074;-77
2023/01/31 09:13:27;;;;;;;23.27;6.97;;;;;;;5.65;100.00;101774.31;4977699;28;20039;-77
2023/01/31 09:15:58;;;;;;;25.08;6.45;;;;;;;5.77;100.00;101777.88;4978686;28;20078;-76
2023/01/31 09:18:25;;;;;;;22.10;4.75;;;;;;;5.82;100.00;101779.66;4974257;28;20138;-78
2023/01/31 09:20:51;;;;;;;18.23;5.22;;;;;;;5.83;100.00;101773.00;4974990;28;20857;-78
2023/01/31 09:23:18;;;;;;;21.50;7.60;;;;;;;5.79;100.00;101774.81;4972555;28;20047;-79
2023/01/31 09:25:55;;;;;;;29.35;7.20;;;;;;;5.83;100.00;101775.75;4986141;28;20744;-78
2023/01/31 09:28:24;;;;;;;11.55;4.85;;;;;;;5.90;100.00;101771.31;4971554;28;20058;-77
2023/01/31 09:30:54;;;;;;;27.02;6.70;;;;;;;5.93;100.00;101765.16;4980967;28;20047;-77
2023/01/31 09:33:22;;;;;;;24.95;6.88;;;;;;;5.95;100.00;101745.56;4972691;28;20134;-75
2023/01/31 09:36:04;;;;;;;15.68;4.85;;;;;;;5.96;100.00;101758.16;4969422;28;20482;-77
2023/01/31 09:38:30;;;;;;;12.77;4.53;;;;;;;6.06;100.00;101753.03;4960092;28;21049;-77
2023/01/31 09:41:00;;;;;;;16.25;4.60;;;;;;;6.06;100.00;101760.47;4970349;28;20049;-77
2023/01/31 09:43:41;;;;;;;20.83;4.53;;;;;;;6.01;100.00;101738.72;4967011;28;20039;-77
2023/01/31 09:46:14;;;;;;;24.70;7.50;;;;;;;5.94;100.00;101750.25;4969050;28;20055;-77
2023/01/31 09:48:44;;;;;;;30.23;7.38;;;;;;;5.98;100.00;101740.22;4967817;28;20515;-75
2023/01/31 09:51:12;;;;;;;31.48;7.75;;;;;;;6.00;100.00;101748.13;4980603;28;20611;-78
2023/01/31 09:53:40;;;;;;;26.70;7.68;;;;;;;5.93;100.00;101750.59;4972973;28;20052;-76
2023/01/31 09:56:36;;;;;;;18.98;4.70;;;;;;;6.07;100.00;101753.84;4957934;28;20052;-77
2023/01/31 09:59:08;;;;;;;;;;;;;;;5.95;100.00;101745.56;4967395;28;20509;-77
2023/01/31 10:01:53;;;;;;;30.38;9.13;;;;;;;5.91;100.00;101744.66;4968910;28;20533;-76
2023/01/31 10:04:22;;;;;;;27.63;7.80;;;;;;;5.93;100.00;101736.88;4960148;28;20055;-76
2023/01/31 10:06:57;;;;;;;28.95;7.30;;;;;;;5.98;100.00;101739.41;4970210;28;20038;-77
2023/01/31 10:09:40;;;;;;;15.80;6.10;;;;;;;5.99;100.00;101736.31;4973983;28;20047;-75
2023/01/31 10:12:17;;;;;;;24.50;7.55;;;;;;;5.86;100.00;101736.63;4970519;28;20408;-77
2023/01/31 10:14:49;;;;;;;23.55;4.22;;;;;;;6.04;100.00;101719.59;4970134;28;20113;-78
2023/01/31 10:17:26;;;;;;;22.48;5.75;;;;;;;5.97;100.00;101718.56;4969655;28;20057;-77
2023/01/31 10:19:59;;;;;;;24.17;7.60;;;;;;;6.04;100.00;101716.06;4980470;28;20051;-77
2023/01/31 10:22:41;;;;;;;23.75;5.40;;;;;;;6.07;100.00;101705.16;4967971;28;20138;-77
2023/01/31 10:25:30;;;;;;;27.70;9.20;;;;;;;5.98;100.00;101710.00;4963996;28;20053;-76
2023/01/31 10:28:03;;;;;;;22.08;6.32;;;;;;;6.16;100.00;101696.81;4966972;28;20786;-77
2023/01/31 10:30:40;;;;;;;18.38;5.35;;;;;;;6.19;100.00;101698.88;4968845;28;20047;-77
2023/01/31 10:33:42;;;;;;;20.20;6.30;;;;;;;6.14;100.00;101699.91;4969314;28;20528;-77
2023/01/31 10:36:17;;;;;;;31.98;8.95;;;;;;;6.15;100.00;101708.97;4948715;28;20069;-77
2023/01/31 10:39:04;;;;;;;16.98;5.38;;;;;;;6.07;100.00;101693.41;4960251;28;20544;-77
2023/01/31 10:41:39;;;;;;;30.30;7.57;;;;;;;6.13;100.00;101700.25;4965729;28;20104;-76
2023/01/31 10:44:16;;;;;;;17.48;6.32;;;;;;;6.14;100.00;101710.91;4970797;28;20046;-78
2023/01/31 10:46:43;;;;;;;11.63;4.63;;;;;;;6.13;100.00;101695.56;4962578;28;20077;-78
2023/01/31 10:49:09;;;;;;;14.32;3.85;;;;;;;6.26;100.00;101696.34;4971134;28;20054;-76
2023/01/31 10:51:39;;;;;;;14.60;5.22;;;;;;;6.22;100.00;101695.44;4989060;28;20050;-75
2023/01/31 10:54:15;;;;;;;18.63;5.28;;;;;;;6.29;100.00;101685.50;4978623;28;20055;-78
2023/01/31 10:56:46;;;;;;;25.08;7.93;;;;;;;6.36;100.00;101671.16;4962853;28;20054;-77
2023/01/31 10:59:38;;;;;;;19.88;5.47;;;;;;;6.36;100.00;101668.41;4973903;28;20459;-77
2023/01/31 11:02:17;;;;;;;31.58;9.73;;;;;;;6.35;100.00;101680.56;4955528;28;20063;-77
2023/01/31 11:04:43;;;;;;;19.05;6.25;;;;;;;6.42;100.00;101686.28;4944341;28;20098;-76
2023/01/31 11:07:11;;;;;;;29.67;9.73;;;;;;;6.40;100.00;101663.81;4947616;28;20051;-77
2023/01/31 11:09:45;;;;;;;22.40;7.80;;;;;;;6.50;100.00;101674.31;4951225;28;20155;-76
2023/01/31 11:12:12;;;;;;;29.30;11.13;;;;;;;6.49;100.00;101697.47;4944738;28;20054;-76
2023/01/31 11:14:38;;;;;;;20.70;6.45;;;;;;;6.58;100.00;101648.66;4945524;28;20466;-76
2023/01/31 11:17:21;;;;;;;14.90;6.15;;;;;;;6.65;100.00;101655.16;4947053;28;20467;-77
2023/01/31 11:19:52;;;;;;;14.65;5.57;;;;;;;6.72;100.00;101654.56;4944105;28;20051;-78
2023/01/31 11:22:27;;;;;;;20.75;4.90;;;;;;;6.77;100.00;101655.13;4942852;28;20165;-76
2023/01/31 11:24:55;;;;;;;18.10;5.10;;;;;;;6.77;100.00;101654.31;4953684;28;20073;-77
2023/01/31 11:27:35;;;;;;;19.92;7.20;;;;;;;6.85;100.00;101664.41;4942126;28;20050;-76
2023/01/31 11:30:04;;;;;;;18.52;5.97;;;;;;;6.85;100.00;101648.66;4942073;28;20066;-75
2023/01/31 11:32:35;;;;;;;16.45;5.80;;;;;;;6.94;100.00;101640.25;4945245;28;20054;-75
2023/01/31 11:35:21;;;;;;;21.23;6.40;;;;;;;6.93;100.00;101645.00;4946978;28;20097;-78
2023/01/31 11:37:51;;;;;;;15.70;5.18;;;;;;;6.92;100.00;101643.38;4946400;28;20046;-75